sensor_id;sensor_type;location;lat;lon;timestamp;P1;durP1;ratioP1;P2;durP2;ratioP2
6941;SDS011;3510;43.200;27.920;2022-12-08T11:31:03;152.80;;;49.10;;
6941;SDS011;3510;43.200;27.920;2022-12-08T11:33:47;186.98;;;50.65;;
6941;SDS011;3510;43.200;27.920;2022-12-08T11:36:18;142.88;;;46.65;;
6941;SDS011;3510;43.200;27.920;2022-12-08T11:38:48;105.77;;;44.73;;
6941;SDS011;3510;43.200;27.920;2022-12-08T11:41:18;74.75;;;37.40;;
6941;SDS011;3510;43.200;27.920;2022-12-08T11:53:51;56.40;;;29.50;;
6941;SDS011;3510;43.200;27.920;2022-12-08T11:56:36;73.50;;;40.97;;
6941;SDS011;3510;43.200;27.920;2022-12-08T11:59:07;81.60;;;43.33;;
6941;SDS011;3510;43.200;27.920;2022-12-08T12:01:42;82.45;;;44.22;;
6941;SDS011;3510;43.200;27.920;2022-12-08T12:04:11;87.85;;;45.60;;
6941;SDS011;3510;43.200;27.920;2022-12-08T12:06:49;88.57;;;47.05;;
6941;SDS011;3510;43.200;27.920;2022-12-08T12:09:43;83.78;;;47.15;;
6941;SDS011;3510;43.200;27.920;2022-12-08T12:12:26;85.30;;;47.00;;
6941;SDS011;3510;43.200;27.920;2022-12-08T12:15:10;75.97;;;44.80;;
6941;SDS011;3510;43.200;27.920;2022-12-08T12:20:48;69.18;;;42.47;;
6941;SDS011;3510;43.200;27.920;2022-12-08T12:23:34;73.10;;;41.87;;
6941;SDS011;3510;43.200;27.920;2022-12-08T12:26:05;72.53;;;41.53;;
6941;SDS011;3510;43.200;27.920;2022-12-08T12:28:38;65.38;;;38.47;;
6941;SDS011;3510;43.200;27.920;2022-12-08T12:31:22;55.78;;;33.72;;
6941;SDS011;3510;43.200;27.920;2022-12-08T12:33:52;43.10;;;28.42;;
6941;SDS011;3510;43.200;27.920;2022-12-08T12:39:33;43.80;;;26.48;;
6941;SDS011;3510;43.200;27.920;2022-12-08T12:50:52;41.42;;;25.63;;
6941;SDS011;3510;43.200;27.920;2022-12-08T12:59:34;40.77;;;25.70;;
6941;SDS011;3510;43.200;27.920;2022-12-08T13:02:14;40.03;;;24.67;;
6941;SDS011;3510;43.200;27.920;2022-12-08T13:04:50;42.38;;;24.42;;
6941;SDS011;3510;43.200;27.920;2022-12-08T13:07:22;40.53;;;25.60;;
6941;SDS011;3510;43.200;27.920;2022-12-08T13:09:54;39.28;;;25.00;;
6941;SDS011;3510;43.200;27.920;2022-12-08T13:12:26;38.95;;;24.38;;
6941;SDS011;3510;43.200;27.920;2022-12-08T13:14:55;37.97;;;23.92;;
6941;SDS011;3510;43.200;27.920;2022-12-08T13:17:28;39.33;;;23.83;;
6941;SDS011;3510;43.200;27.920;2022-12-08T13:19:58;39.50;;;22.75;;
6941;SDS011;3510;43.200;27.920;2022-12-08T13:28:24;32.90;;;21.33;;
6941;SDS011;3510;43.200;27.920;2022-12-08T13:30:53;35.55;;;21.90;;
6941;SDS011;3510;43.200;27.920;2022-12-08T13:33:26;29.77;;;21.52;;
6941;SDS011;3510;43.200;27.920;2022-12-08T13:35:59;31.58;;;20.55;;
6941;SDS011;3510;43.200;27.920;2022-12-08T13:38:33;31.48;;;20.75;;
6941;SDS011;3510;43.200;27.920;2022-12-08T13:41:03;32.65;;;21.23;;
6941;SDS011;3510;43.200;27.920;2022-12-08T13:43:41;35.80;;;21.17;;
6941;SDS011;3510;43.200;27.920;2022-12-08T13:46:14;30.77;;;20.73;;
6941;SDS011;3510;43.200;27.920;2022-12-08T13:48:50;37.00;;;21.80;;
6941;SDS011;3510;43.200;27.920;2022-12-08T13:51:20;33.15;;;21.30;;
6941;SDS011;3510;43.200;27.920;2022-12-08T13:53:55;40.80;;;23.40;;
6941;SDS011;3510;43.200;27.920;2022-12-08T13:56:26;37.72;;;22.65;;
6941;SDS011;3510;43.200;27.920;2022-12-08T13:59:07;38.35;;;22.90;;
6941;SDS011;3510;43.200;27.920;2022-12-08T14:01:38;42.95;;;23.50;;
6941;SDS011;3510;43.200;27.920;2022-12-08T14:04:12;37.87;;;23.43;;
6941;SDS011;3510;43.200;27.920;2022-12-08T14:06:41;38.40;;;22.80;;
6941;SDS011;3510;43.200;27.920;2022-12-08T14:09:11;38.83;;;22.48;;
6941;SDS011;3510;43.200;27.920;2022-12-08T14:11:41;34.38;;;22.60;;
6941;SDS011;3510;43.200;27.920;2022-12-08T14:14:15;35.30;;;22.48;;
6941;SDS011;3510;43.200;27.920;2022-12-08T14:16:48;31.92;;;21.75;;
6941;SDS011;3510;43.200;27.920;2022-12-08T14:19:18;43.53;;;22.43;;
6941;SDS011;3510;43.200;27.920;2022-12-08T14:21:50;32.90;;;21.65;;
6941;SDS011;3510;43.200;27.920;2022-12-08T14:24:20;31.08;;;20.27;;
6941;SDS011;3510;43.200;27.920;2022-12-08T14:26:49;32.65;;;20.92;;
6941;SDS011;3510;43.200;27.920;2022-12-08T14:29:27;37.65;;;21.42;;
6941;SDS011;3510;43.200;27.920;2022-12-08T14:32:01;34.27;;;21.47;;
6941;SDS011;3510;43.200;27.920;2022-12-08T14:34:29;32.88;;;21.23;;
6941;SDS011;3510;43.200;27.920;2022-12-08T14:37:04;36.65;;;22.42;;
6941;SDS011;3510;43.200;27.920;2022-12-08T14:39:36;36.47;;;21.88;;
6941;SDS011;3510;43.200;27.920;2022-12-08T14:42:06;38.58;;;21.25;;
6941;SDS011;3510;43.200;27.920;2022-12-08T14:44:35;34.25;;;22.15;;
6941;SDS011;3510;43.200;27.920;2022-12-08T14:47:05;33.60;;;22.30;;
6941;SDS011;3510;43.200;27.920;2022-12-08T14:49:35;42.63;;;22.75;;
6941;SDS011;3510;43.200;27.920;2022-12-08T14:52:08;38.28;;;21.40;;
6941;SDS011;3510;43.200;27.920;2022-12-08T14:54:36;34.10;;;21.10;;
6941;SDS011;3510;43.200;27.920;2022-12-08T14:57:09;34.40;;;20.77;;
6941;SDS011;3510;43.200;27.920;2022-12-08T14:59:40;31.83;;;20.27;;
6941;SDS011;3510;43.200;27.920;2022-12-08T15:02:10;37.17;;;20.83;;
6941;SDS011;3510;43.200;27.920;2022-12-08T15:04:47;32.53;;;21.83;;
6941;SDS011;3510;43.200;27.920;2022-12-08T15:07:20;35.17;;;21.45;;
6941;SDS011;3510;43.200;27.920;2022-12-08T15:10:05;31.85;;;20.60;;
6941;SDS011;3510;43.200;27.920;2022-12-08T15:12:56;31.33;;;20.27;;
6941;SDS011;3510;43.200;27.920;2022-12-08T15:15:29;33.37;;;21.33;;
6941;SDS011;3510;43.200;27.920;2022-12-08T15:18:05;36.88;;;22.55;;
6941;SDS011;3510;43.200;27.920;2022-12-08T15:20:39;35.03;;;20.33;;
6941;SDS011;3510;43.200;27.920;2022-12-08T15:23:19;33.28;;;20.25;;
6941;SDS011;3510;43.200;27.920;2022-12-08T15:25:48;36.67;;;21.33;;
6941;SDS011;3510;43.200;27.920;2022-12-08T15:28:29;30.48;;;20.15;;
6941;SDS011;3510;43.200;27.920;2022-12-08T15:37:05;36.53;;;19.83;;
6941;SDS011;3510;43.200;27.920;2022-12-08T15:39:44;28.98;;;19.63;;
6941;SDS011;3510;43.200;27.920;2022-12-08T15:42:12;29.92;;;20.48;;
6941;SDS011;3510;43.200;27.920;2022-12-08T15:44:39;32.92;;;20.85;;
6941;SDS011;3510;43.200;27.920;2022-12-08T15:47:08;35.83;;;19.98;;
6941;SDS011;3510;43.200;27.920;2022-12-08T15:49:42;32.08;;;20.63;;
6941;SDS011;3510;43.200;27.920;2022-12-08T15:52:11;27.75;;;19.27;;
6941;SDS011;3510;43.200;27.920;2022-12-08T15:54:40;36.30;;;20.17;;
6941;SDS011;3510;43.200;27.920;2022-12-08T15:57:12;34.50;;;22.17;;
6941;SDS011;3510;43.200;27.920;2022-12-08T15:59:44;32.03;;;18.90;;
6941;SDS011;3510;43.200;27.920;2022-12-08T16:02:11;28.55;;;19.50;;
6941;SDS011;3510;43.200;27.920;2022-12-08T16:04:39;31.53;;;20.07;;
6941;SDS011;3510;43.200;27.920;2022-12-08T16:07:13;35.15;;;20.25;;
6941;SDS011;3510;43.200;27.920;2022-12-08T16:09:44;33.72;;;19.95;;
6941;SDS011;3510;43.200;27.920;2022-12-08T16:12:13;32.88;;;18.77;;
6941;SDS011;3510;43.200;27.920;2022-12-08T16:14:58;33.80;;;19.77;;
6941;SDS011;3510;43.200;27.920;2022-12-08T16:17:25;27.00;;;18.48;;
6941;SDS011;3510;43.200;27.920;2022-12-08T16:19:53;31.92;;;19.08;;
6941;SDS011;3510;43.200;27.920;2022-12-08T16:22:23;35.90;;;20.38;;
6941;SDS011;3510;43.200;27.920;2022-12-08T16:24:52;29.53;;;20.27;;
6941;SDS011;3510;43.200;27.920;2022-12-08T16:27:20;38.63;;;21.55;;
6941;SDS011;3510;43.200;27.920;2022-12-08T16:29:49;39.40;;;21.05;;
6941;SDS011;3510;43.200;27.920;2022-12-08T16:32:16;38.20;;;22.48;;
6941;SDS011;3510;43.200;27.920;2022-12-08T16:34:43;40.38;;;22.65;;
6941;SDS011;3510;43.200;27.920;2022-12-08T16:37:13;34.67;;;21.60;;
6941;SDS011;3510;43.200;27.920;2022-12-08T16:39:44;39.42;;;22.80;;
6941;SDS011;3510;43.200;27.920;2022-12-08T16:42:14;41.40;;;23.40;;
6941;SDS011;3510;43.200;27.920;2022-12-08T16:45:01;38.60;;;23.43;;
6941;SDS011;3510;43.200;27.920;2022-12-08T16:47:29;37.55;;;24.27;;
6941;SDS011;3510;43.200;27.920;2022-12-08T16:49:57;42.35;;;24.88;;
6941;SDS011;3510;43.200;27.920;2022-12-08T16:52:24;48.90;;;26.80;;
6941;SDS011;3510;43.200;27.920;2022-12-08T16:54:53;39.40;;;25.52;;
6941;SDS011;3510;43.200;27.920;2022-12-08T16:57:20;45.42;;;26.38;;
6941;SDS011;3510;43.200;27.920;2022-12-08T16:59:47;38.75;;;27.02;;
6941;SDS011;3510;43.200;27.920;2022-12-08T17:02:14;43.22;;;26.30;;
6941;SDS011;3510;43.200;27.920;2022-12-08T17:04:41;46.30;;;26.05;;
6941;SDS011;3510;43.200;27.920;2022-12-08T17:07:08;39.80;;;26.20;;
6941;SDS011;3510;43.200;27.920;2022-12-08T17:09:35;38.60;;;26.17;;
6941;SDS011;3510;43.200;27.920;2022-12-08T17:12:05;41.88;;;26.98;;
6941;SDS011;3510;43.200;27.920;2022-12-08T17:14:32;44.67;;;27.35;;
6941;SDS011;3510;43.200;27.920;2022-12-08T17:17:00;45.10;;;25.77;;
6941;SDS011;3510;43.200;27.920;2022-12-08T17:19:27;45.15;;;27.15;;
6941;SDS011;3510;43.200;27.920;2022-12-08T17:21:54;45.10;;;28.13;;
6941;SDS011;3510;43.200;27.920;2022-12-08T17:24:21;52.93;;;27.83;;
6941;SDS011;3510;43.200;27.920;2022-12-08T17:26:53;43.40;;;27.10;;
6941;SDS011;3510;43.200;27.920;2022-12-08T17:29:21;49.95;;;27.80;;
6941;SDS011;3510;43.200;27.920;2022-12-08T17:31:48;42.53;;;27.17;;
6941;SDS011;3510;43.200;27.920;2022-12-08T17:34:16;43.20;;;26.02;;
6941;SDS011;3510;43.200;27.920;2022-12-08T17:36:43;44.28;;;26.27;;
6941;SDS011;3510;43.200;27.920;2022-12-08T17:39:11;47.30;;;26.35;;
6941;SDS011;3510;43.200;27.920;2022-12-08T17:41:39;41.80;;;26.20;;
6941;SDS011;3510;43.200;27.920;2022-12-08T17:44:10;41.72;;;26.35;;
6941;SDS011;3510;43.200;27.920;2022-12-08T17:46:39;41.58;;;26.88;;
6941;SDS011;3510;43.200;27.920;2022-12-08T17:49:07;46.17;;;27.50;;
6941;SDS011;3510;43.200;27.920;2022-12-08T17:51:36;50.03;;;27.90;;
6941;SDS011;3510;43.200;27.920;2022-12-08T17:54:03;39.90;;;25.50;;
6941;SDS011;3510;43.200;27.920;2022-12-08T17:56:30;49.83;;;28.17;;
6941;SDS011;3510;43.200;27.920;2022-12-08T17:58:57;44.63;;;28.40;;
6941;SDS011;3510;43.200;27.920;2022-12-08T18:01:25;47.90;;;29.00;;
6941;SDS011;3510;43.200;27.920;2022-12-08T18:03:54;54.07;;;30.40;;
6941;SDS011;3510;43.200;27.920;2022-12-08T18:06:23;48.25;;;30.20;;
6941;SDS011;3510;43.200;27.920;2022-12-08T18:08:50;47.13;;;30.10;;
6941;SDS011;3510;43.200;27.920;2022-12-08T18:11:18;50.83;;;31.30;;
6941;SDS011;3510;43.200;27.920;2022-12-08T18:13:45;56.28;;;32.80;;
6941;SDS011;3510;43.200;27.920;2022-12-08T18:16:13;65.05;;;35.50;;
6941;SDS011;3510;43.200;27.920;2022-12-08T18:18:42;56.97;;;35.08;;
6941;SDS011;3510;43.200;27.920;2022-12-08T18:21:10;58.90;;;36.58;;
6941;SDS011;3510;43.200;27.920;2022-12-08T18:23:37;65.97;;;39.65;;
6941;SDS011;3510;43.200;27.920;2022-12-08T18:26:06;75.00;;;42.92;;
6941;SDS011;3510;43.200;27.920;2022-12-08T18:28:35;67.07;;;38.47;;
6941;SDS011;3510;43.200;27.920;2022-12-08T18:31:06;65.65;;;36.55;;
6941;SDS011;3510;43.200;27.920;2022-12-08T18:33:34;57.35;;;37.10;;
6941;SDS011;3510;43.200;27.920;2022-12-08T18:36:05;60.85;;;39.00;;
6941;SDS011;3510;43.200;27.920;2022-12-08T18:38:34;58.08;;;36.55;;
6941;SDS011;3510;43.200;27.920;2022-12-08T18:41:03;60.55;;;37.50;;
6941;SDS011;3510;43.200;27.920;2022-12-08T18:43:31;56.72;;;35.63;;
6941;SDS011;3510;43.200;27.920;2022-12-08T18:46:01;55.88;;;34.17;;
6941;SDS011;3510;43.200;27.920;2022-12-08T18:48:28;54.42;;;34.40;;
6941;SDS011;3510;43.200;27.920;2022-12-08T18:50:55;53.08;;;35.80;;
6941;SDS011;3510;43.200;27.920;2022-12-08T18:53:23;57.47;;;37.58;;
6941;SDS011;3510;43.200;27.920;2022-12-08T18:55:51;51.47;;;32.63;;
6941;SDS011;3510;43.200;27.920;2022-12-08T18:58:18;49.50;;;32.53;;
6941;SDS011;3510;43.200;27.920;2022-12-08T19:00:45;50.33;;;29.67;;
6941;SDS011;3510;43.200;27.920;2022-12-08T19:03:12;51.45;;;30.98;;
6941;SDS011;3510;43.200;27.920;2022-12-08T19:05:40;40.50;;;25.20;;
6941;SDS011;3510;43.200;27.920;2022-12-08T19:08:07;35.03;;;22.40;;
6941;SDS011;3510;43.200;27.920;2022-12-08T19:10:34;66.60;;;42.20;;
6941;SDS011;3510;43.200;27.920;2022-12-08T19:13:04;56.53;;;37.33;;
6941;SDS011;3510;43.200;27.920;2022-12-08T19:15:32;45.92;;;31.55;;
6941;SDS011;3510;43.200;27.920;2022-12-08T19:18:00;59.17;;;35.10;;
6941;SDS011;3510;43.200;27.920;2022-12-08T19:20:28;63.03;;;37.17;;
6941;SDS011;3510;43.200;27.920;2022-12-08T19:22:55;61.70;;;37.67;;
6941;SDS011;3510;43.200;27.920;2022-12-08T19:25:22;58.42;;;37.15;;
6941;SDS011;3510;43.200;27.920;2022-12-08T19:27:49;61.10;;;39.58;;
6941;SDS011;3510;43.200;27.920;2022-12-08T19:30:18;71.13;;;39.95;;
6941;SDS011;3510;43.200;27.920;2022-12-08T19:32:45;76.35;;;40.88;;
6941;SDS011;3510;43.200;27.920;2022-12-08T19:35:12;83.60;;;39.75;;
6941;SDS011;3510;43.200;27.920;2022-12-08T19:37:39;71.38;;;40.03;;
6941;SDS011;3510;43.200;27.920;2022-12-08T19:40:09;73.70;;;42.97;;
6941;SDS011;3510;43.200;27.920;2022-12-08T19:42:54;79.10;;;39.95;;
6941;SDS011;3510;43.200;27.920;2022-12-08T19:45:40;62.80;;;39.42;;
6941;SDS011;3510;43.200;27.920;2022-12-08T19:48:07;81.80;;;48.37;;
6941;SDS011;3510;43.200;27.920;2022-12-08T19:50:34;74.00;;;45.17;;
6941;SDS011;3510;43.200;27.920;2022-12-08T19:53:02;61.70;;;37.72;;
6941;SDS011;3510;43.200;27.920;2022-12-08T19:55:29;50.37;;;32.77;;
6941;SDS011;3510;43.200;27.920;2022-12-08T19:57:57;55.97;;;32.88;;
6941;SDS011;3510;43.200;27.920;2022-12-08T20:00:26;50.75;;;30.95;;
6941;SDS011;3510;43.200;27.920;2022-12-08T20:02:57;52.60;;;31.10;;
6941;SDS011;3510;43.200;27.920;2022-12-08T20:05:24;53.53;;;32.03;;
6941;SDS011;3510;43.200;27.920;2022-12-08T20:07:51;48.67;;;30.38;;
6941;SDS011;3510;43.200;27.920;2022-12-08T20:10:21;45.17;;;28.55;;
6941;SDS011;3510;43.200;27.920;2022-12-08T20:12:49;43.55;;;28.15;;
6941;SDS011;3510;43.200;27.920;2022-12-08T20:15:36;46.50;;;29.03;;
6941;SDS011;3510;43.200;27.920;2022-12-08T20:18:05;50.30;;;29.90;;
6941;SDS011;3510;43.200;27.920;2022-12-08T20:20:32;45.40;;;28.77;;
6941;SDS011;3510;43.200;27.920;2022-12-08T20:22:59;42.75;;;27.02;;
6941;SDS011;3510;43.200;27.920;2022-12-08T20:25:26;45.67;;;27.92;;
6941;SDS011;3510;43.200;27.920;2022-12-08T20:27:53;51.83;;;27.52;;
6941;SDS011;3510;43.200;27.920;2022-12-08T20:30:21;40.47;;;24.60;;
6941;SDS011;3510;43.200;27.920;2022-12-08T20:32:48;42.33;;;24.77;;
6941;SDS011;3510;43.200;27.920;2022-12-08T20:35:16;37.03;;;23.13;;
6941;SDS011;3510;43.200;27.920;2022-12-08T20:37:43;34.63;;;23.90;;
6941;SDS011;3510;43.200;27.920;2022-12-08T20:40:11;33.67;;;22.38;;
6941;SDS011;3510;43.200;27.920;2022-12-08T20:42:38;40.05;;;24.42;;
6941;SDS011;3510;43.200;27.920;2022-12-08T20:45:05;36.88;;;24.48;;
6941;SDS011;3510;43.200;27.920;2022-12-08T20:47:33;37.45;;;23.52;;
6941;SDS011;3510;43.200;27.920;2022-12-08T20:50:00;66.87;;;45.07;;
6941;SDS011;3510;43.200;27.920;2022-12-08T20:52:30;118.63;;;72.13;;
6941;SDS011;3510;43.200;27.920;2022-12-08T20:54:57;116.38;;;66.07;;
6941;SDS011;3510;43.200;27.920;2022-12-08T20:57:24;88.38;;;51.97;;
6941;SDS011;3510;43.200;27.920;2022-12-08T20:59:51;86.03;;;51.63;;
6941;SDS011;3510;43.200;27.920;2022-12-08T21:02:18;63.97;;;41.05;;
6941;SDS011;3510;43.200;27.920;2022-12-08T21:04:45;51.88;;;34.38;;
6941;SDS011;3510;43.200;27.920;2022-12-08T21:07:12;64.13;;;41.47;;
6941;SDS011;3510;43.200;27.920;2022-12-08T21:09:40;53.35;;;33.58;;
6941;SDS011;3510;43.200;27.920;2022-12-08T21:12:07;52.67;;;33.20;;
6941;SDS011;3510;43.200;27.920;2022-12-08T21:14:35;48.88;;;30.55;;
6941;SDS011;3510;43.200;27.920;2022-12-08T21:17:02;48.08;;;29.40;;
6941;SDS011;3510;43.200;27.920;2022-12-08T21:19:29;42.35;;;26.08;;
6941;SDS011;3510;43.200;27.920;2022-12-08T21:21:56;57.20;;;35.35;;
6941;SDS011;3510;43.200;27.920;2022-12-08T21:24:23;50.00;;;32.80;;
6941;SDS011;3510;43.200;27.920;2022-12-08T21:26:52;44.72;;;28.45;;
6941;SDS011;3510;43.200;27.920;2022-12-08T21:29:19;46.75;;;30.38;;
6941;SDS011;3510;43.200;27.920;2022-12-08T21:31:46;52.67;;;30.93;;
6941;SDS011;3510;43.200;27.920;2022-12-08T21:34:13;46.40;;;29.48;;
6941;SDS011;3510;43.200;27.920;2022-12-08T21:36:40;52.70;;;31.80;;
6941;SDS011;3510;43.200;27.920;2022-12-08T21:39:07;49.80;;;31.90;;
6941;SDS011;3510;43.200;27.920;2022-12-08T21:41:36;49.47;;;29.98;;
6941;SDS011;3510;43.200;27.920;2022-12-08T21:44:22;44.90;;;28.80;;
6941;SDS011;3510;43.200;27.920;2022-12-08T21:46:50;54.38;;;30.88;;
6941;SDS011;3510;43.200;27.920;2022-12-08T21:49:17;51.17;;;30.73;;
6941;SDS011;3510;43.200;27.920;2022-12-08T21:51:44;49.13;;;30.95;;
6941;SDS011;3510;43.200;27.920;2022-12-08T21:54:11;54.60;;;32.22;;
6941;SDS011;3510;43.200;27.920;2022-12-08T21:56:39;54.00;;;31.85;;
6941;SDS011;3510;43.200;27.920;2022-12-08T21:59:08;46.38;;;30.58;;
6941;SDS011;3510;43.200;27.920;2022-12-08T22:01:37;46.13;;;28.70;;
6941;SDS011;3510;43.200;27.920;2022-12-08T22:04:04;45.63;;;28.57;;
6941;SDS011;3510;43.200;27.920;2022-12-08T22:06:31;47.20;;;29.88;;
6941;SDS011;3510;43.200;27.920;2022-12-08T22:08:58;47.80;;;30.10;;
6941;SDS011;3510;43.200;27.920;2022-12-08T22:11:26;42.78;;;28.65;;
6941;SDS011;3510;43.200;27.920;2022-12-08T22:13:53;45.03;;;26.20;;
6941;SDS011;3510;43.200;27.920;2022-12-08T22:16:20;42.65;;;25.95;;
6941;SDS011;3510;43.200;27.920;2022-12-08T22:18:48;39.83;;;27.13;;
6941;SDS011;3510;43.200;27.920;2022-12-08T22:21:16;45.35;;;27.35;;
6941;SDS011;3510;43.200;27.920;2022-12-08T22:23:43;51.33;;;30.27;;
6941;SDS011;3510;43.200;27.920;2022-12-08T22:26:11;47.92;;;29.88;;
6941;SDS011;3510;43.200;27.920;2022-12-08T22:28:39;51.08;;;30.35;;
6941;SDS011;3510;43.200;27.920;2022-12-08T22:31:07;54.25;;;30.02;;
6941;SDS011;3510;43.200;27.920;2022-12-08T22:33:36;61.63;;;32.28;;
6941;SDS011;3510;43.200;27.920;2022-12-08T22:36:05;53.47;;;32.53;;
6941;SDS011;3510;43.200;27.920;2022-12-08T22:38:33;59.28;;;32.05;;
6941;SDS011;3510;43.200;27.920;2022-12-08T22:41:00;47.97;;;31.00;;
6941;SDS011;3510;43.200;27.920;2022-12-08T22:43:29;52.88;;;30.83;;
6941;SDS011;3510;43.200;27.920;2022-12-08T22:45:57;50.67;;;31.38;;
6941;SDS011;3510;43.200;27.920;2022-12-08T22:48:24;52.93;;;32.23;;
6941;SDS011;3510;43.200;27.920;2022-12-08T22:50:56;51.25;;;31.25;;
6941;SDS011;3510;43.200;27.920;2022-12-08T22:53:25;51.10;;;31.48;;
6941;SDS011;3510;43.200;27.920;2022-12-08T22:55:52;59.25;;;32.65;;
6941;SDS011;3510;43.200;27.920;2022-12-08T22:58:19;51.97;;;31.45;;
6941;SDS011;3510;43.200;27.920;2022-12-08T23:00:47;53.03;;;31.75;;
6941;SDS011;3510;43.200;27.920;2022-12-08T23:03:14;49.67;;;30.40;;
6941;SDS011;3510;43.200;27.920;2022-12-08T23:05:41;51.45;;;30.60;;
6941;SDS011;3510;43.200;27.920;2022-12-08T23:08:11;55.80;;;33.17;;
6941;SDS011;3510;43.200;27.920;2022-12-08T23:10:43;51.42;;;31.13;;
6941;SDS011;3510;43.200;27.920;2022-12-08T23:13:11;53.17;;;30.48;;
6941;SDS011;3510;43.200;27.920;2022-12-08T23:15:39;56.10;;;32.10;;
6941;SDS011;3510;43.200;27.920;2022-12-08T23:18:06;53.85;;;33.05;;
6941;SDS011;3510;43.200;27.920;2022-12-08T23:20:33;60.45;;;33.08;;
6941;SDS011;3510;43.200;27.920;2022-12-08T23:23:00;58.78;;;34.90;;
6941;SDS011;3510;43.200;27.920;2022-12-08T23:25:27;59.67;;;34.53;;
6941;SDS011;3510;43.200;27.920;2022-12-08T23:27:56;56.08;;;32.95;;
6941;SDS011;3510;43.200;27.920;2022-12-08T23:30:23;57.13;;;32.30;;
6941;SDS011;3510;43.200;27.920;2022-12-08T23:32:52;60.47;;;34.15;;
6941;SDS011;3510;43.200;27.920;2022-12-08T23:35:20;64.00;;;34.35;;
6941;SDS011;3510;43.200;27.920;2022-12-08T23:37:47;57.47;;;34.10;;
6941;SDS011;3510;43.200;27.920;2022-12-08T23:40:14;59.38;;;34.72;;
6941;SDS011;3510;43.200;27.920;2022-12-08T23:42:41;61.05;;;35.28;;
6941;SDS011;3510;43.200;27.920;2022-12-08T23:45:10;56.05;;;34.13;;
6941;SDS011;3510;43.200;27.920;2022-12-08T23:47:37;61.85;;;33.45;;
6941;SDS011;3510;43.200;27.920;2022-12-08T23:50:05;58.80;;;33.05;;
6941;SDS011;3510;43.200;27.920;2022-12-08T23:52:32;54.50;;;32.43;;
6941;SDS011;3510;43.200;27.920;2022-12-08T23:55:00;48.38;;;29.88;;
6941;SDS011;3510;43.200;27.920;2022-12-08T23:57:27;48.03;;;30.52;;
6941;SDS011;3510;43.200;27.920;2022-12-08T23:59:54;45.58;;;28.90;;
